Main page
METAR-TAF:

METAR-TAF

Airports :

Salina Regional Airport

Salina, Kansas, United States

latitude: 38-46-48N, longitude: 097-38-39W, elevation: 1269 ft

Current weather observation

The report was made 43 minutes ago, at 15:53 UTC
Wind 10 mph from the North
Temperature 73°F
Humidity 65%
Pressure 30.01 in. Hg
Visibility: 10 miles
Overcast at a height of 7500 ft

METAR: KSLN 281553Z 35009KT 10SM OVC075 23/16 A3001 RMK AO2 SLP152 T02280156

Time: 11:36 (16:36 UTC)

Forecast

The report was made 5 hours and 16 minutes ago, at 11:20 UTC
Forecast valid from 28 at 12 UTC to 29 at 12 UTC
Wind 8 mph from the West/Northwest
Visibility: 6 miles
Broken clouds at a height of 5000 ft
From 28 at 1800 UTC
Wind 17 mph from the North with gusts up to 26 mph
Visibility: 6 miles
Scattered clouds at a height of 25000 ft
From 29 at 0000 UTC
Wind 16 mph from the North
Visibility: 6 miles
Few clouds at a height of 25000 ft

TAF: KSLN 281120Z 2812/2912 30007KT P6SM BKN050 FM281800 36015G23KT P6SM SCT250 FM290000 01014KT P6SM FEW250

Weather observations and forecasts of more than 4000 airports (METAR and TAF reports).

The available stations are represented by yellow and red dots on the map.

Hover mouse over dot to see the name of the station.

Then click to see weather observations and forecasts.

To change the map : click on the green buttons with a black cross to zoom in, on the green button with a dash to zoom out, or on the green arrows for adjacent maps.


METAR-TAF: